sensor_id;sensor_type;location;lat;lon;timestamp;P1;durP1;ratioP1;P2;durP2;ratioP2
21430;SDS011;10876;49.038;10.608;2023-06-14T00:02:22;5.78;;;4.20;;
21430;SDS011;10876;49.038;10.608;2023-06-14T00:04:49;5.07;;;3.78;;
21430;SDS011;10876;49.038;10.608;2023-06-14T00:07:20;9.32;;;4.45;;
21430;SDS011;10876;49.038;10.608;2023-06-14T00:09:59;6.55;;;4.32;;
21430;SDS011;10876;49.038;10.608;2023-06-14T00:12:26;5.10;;;4.22;;
21430;SDS011;10876;49.038;10.608;2023-06-14T00:14:52;8.15;;;4.18;;
21430;SDS011;10876;49.038;10.608;2023-06-14T00:17:19;5.38;;;4.38;;
21430;SDS011;10876;49.038;10.608;2023-06-14T00:19:46;6.50;;;4.65;;
21430;SDS011;10876;49.038;10.608;2023-06-14T00:22:13;6.53;;;4.20;;
21430;SDS011;10876;49.038;10.608;2023-06-14T00:24:41;4.47;;;3.90;;
21430;SDS011;10876;49.038;10.608;2023-06-14T00:27:08;6.55;;;4.00;;
21430;SDS011;10876;49.038;10.608;2023-06-14T00:29:35;6.05;;;4.10;;
21430;SDS011;10876;49.038;10.608;2023-06-14T00:32:01;7.80;;;3.83;;
21430;SDS011;10876;49.038;10.608;2023-06-14T00:34:28;6.00;;;3.92;;
21430;SDS011;10876;49.038;10.608;2023-06-14T00:36:55;5.10;;;4.05;;
21430;SDS011;10876;49.038;10.608;2023-06-14T00:39:22;5.35;;;3.80;;
21430;SDS011;10876;49.038;10.608;2023-06-14T00:41:51;6.63;;;4.15;;
21430;SDS011;10876;49.038;10.608;2023-06-14T00:44:18;6.50;;;3.70;;
21430;SDS011;10876;49.038;10.608;2023-06-14T00:46:45;7.13;;;3.90;;
21430;SDS011;10876;49.038;10.608;2023-06-14T00:49:12;8.38;;;4.03;;
21430;SDS011;10876;49.038;10.608;2023-06-14T00:51:41;6.45;;;4.22;;
21430;SDS011;10876;49.038;10.608;2023-06-14T00:54:08;7.25;;;4.40;;
21430;SDS011;10876;49.038;10.608;2023-06-14T00:56:35;6.78;;;4.28;;
21430;SDS011;10876;49.038;10.608;2023-06-14T00:59:04;5.20;;;4.22;;
21430;SDS011;10876;49.038;10.608;2023-06-14T01:01:31;5.85;;;4.22;;
21430;SDS011;10876;49.038;10.608;2023-06-14T01:03:58;5.78;;;4.38;;
21430;SDS011;10876;49.038;10.608;2023-06-14T01:06:28;5.88;;;4.30;;
21430;SDS011;10876;49.038;10.608;2023-06-14T01:09:09;5.68;;;3.97;;
21430;SDS011;10876;49.038;10.608;2023-06-14T01:11:44;6.80;;;4.28;;
21430;SDS011;10876;49.038;10.608;2023-06-14T01:14:18;6.10;;;4.00;;
21430;SDS011;10876;49.038;10.608;2023-06-14T01:16:46;6.88;;;4.45;;
21430;SDS011;10876;49.038;10.608;2023-06-14T01:19:18;5.13;;;4.32;;
21430;SDS011;10876;49.038;10.608;2023-06-14T01:21:47;6.40;;;4.80;;
21430;SDS011;10876;49.038;10.608;2023-06-14T01:24:17;5.47;;;3.97;;
21430;SDS011;10876;49.038;10.608;2023-06-14T01:26:50;5.63;;;4.40;;
21430;SDS011;10876;49.038;10.608;2023-06-14T01:29:21;5.30;;;4.43;;
21430;SDS011;10876;49.038;10.608;2023-06-14T01:31:48;5.93;;;4.45;;
21430;SDS011;10876;49.038;10.608;2023-06-14T01:34:16;7.57;;;4.13;;
21430;SDS011;10876;49.038;10.608;2023-06-14T03:17:37;7.03;;;5.45;;
21430;SDS011;10876;49.038;10.608;2023-06-14T03:20:04;7.93;;;5.72;;
21430;SDS011;10876;49.038;10.608;2023-06-14T03:22:33;7.10;;;5.10;;
21430;SDS011;10876;49.038;10.608;2023-06-14T03:25:00;8.32;;;5.82;;
21430;SDS011;10876;49.038;10.608;2023-06-14T03:27:29;7.75;;;5.28;;
21430;SDS011;10876;49.038;10.608;2023-06-14T03:29:56;9.85;;;5.65;;
21430;SDS011;10876;49.038;10.608;2023-06-14T03:32:22;7.60;;;5.38;;
21430;SDS011;10876;49.038;10.608;2023-06-14T03:34:50;10.40;;;5.88;;
21430;SDS011;10876;49.038;10.608;2023-06-14T03:37:17;13.32;;;5.35;;
21430;SDS011;10876;49.038;10.608;2023-06-14T03:39:44;6.93;;;5.50;;
21430;SDS011;10876;49.038;10.608;2023-06-14T03:42:12;9.10;;;5.45;;
21430;SDS011;10876;49.038;10.608;2023-06-14T03:44:39;10.30;;;5.80;;
21430;SDS011;10876;49.038;10.608;2023-06-14T03:47:06;6.93;;;5.63;;
21430;SDS011;10876;49.038;10.608;2023-06-14T03:49:33;7.72;;;5.55;;
21430;SDS011;10876;49.038;10.608;2023-06-14T03:52:01;10.73;;;6.05;;
21430;SDS011;10876;49.038;10.608;2023-06-14T03:54:29;8.43;;;5.55;;
21430;SDS011;10876;49.038;10.608;2023-06-14T03:56:57;10.05;;;5.90;;
21430;SDS011;10876;49.038;10.608;2023-06-14T03:59:24;8.52;;;6.38;;
21430;SDS011;10876;49.038;10.608;2023-06-14T04:01:52;7.80;;;5.28;;
21430;SDS011;10876;49.038;10.608;2023-06-14T04:04:19;7.45;;;6.18;;
21430;SDS011;10876;49.038;10.608;2023-06-14T04:06:46;7.72;;;5.88;;
21430;SDS011;10876;49.038;10.608;2023-06-14T04:09:16;7.35;;;5.55;;
21430;SDS011;10876;49.038;10.608;2023-06-14T04:11:44;8.50;;;5.82;;
21430;SDS011;10876;49.038;10.608;2023-06-14T04:14:10;10.75;;;5.85;;
21430;SDS011;10876;49.038;10.608;2023-06-14T04:16:37;8.25;;;5.82;;
21430;SDS011;10876;49.038;10.608;2023-06-14T04:19:04;10.10;;;6.10;;
21430;SDS011;10876;49.038;10.608;2023-06-14T04:21:30;7.90;;;5.60;;
21430;SDS011;10876;49.038;10.608;2023-06-14T04:24:00;7.38;;;5.60;;
21430;SDS011;10876;49.038;10.608;2023-06-14T04:26:28;9.02;;;5.88;;
21430;SDS011;10876;49.038;10.608;2023-06-14T04:28:58;7.47;;;5.80;;
21430;SDS011;10876;49.038;10.608;2023-06-14T04:31:26;8.32;;;5.88;;
21430;SDS011;10876;49.038;10.608;2023-06-14T04:33:54;9.48;;;6.13;;
21430;SDS011;10876;49.038;10.608;2023-06-14T04:36:21;8.18;;;6.15;;
21430;SDS011;10876;49.038;10.608;2023-06-14T04:38:48;9.55;;;5.70;;
21430;SDS011;10876;49.038;10.608;2023-06-14T04:41:19;8.38;;;5.30;;
21430;SDS011;10876;49.038;10.608;2023-06-14T04:43:49;10.40;;;6.38;;
21430;SDS011;10876;49.038;10.608;2023-06-14T04:46:18;8.57;;;5.80;;
21430;SDS011;10876;49.038;10.608;2023-06-14T04:48:45;8.98;;;5.65;;
21430;SDS011;10876;49.038;10.608;2023-06-14T04:51:13;6.40;;;5.18;;
21430;SDS011;10876;49.038;10.608;2023-06-14T04:53:40;7.90;;;5.90;;
21430;SDS011;10876;49.038;10.608;2023-06-14T04:56:07;7.95;;;5.88;;
21430;SDS011;10876;49.038;10.608;2023-06-14T04:58:35;8.68;;;5.93;;
21430;SDS011;10876;49.038;10.608;2023-06-14T05:01:04;8.48;;;5.85;;
21430;SDS011;10876;49.038;10.608;2023-06-14T05:03:34;8.00;;;5.57;;
21430;SDS011;10876;49.038;10.608;2023-06-14T05:06:01;7.97;;;6.03;;
21430;SDS011;10876;49.038;10.608;2023-06-14T05:08:27;7.28;;;5.63;;
21430;SDS011;10876;49.038;10.608;2023-06-14T05:10:54;8.70;;;5.57;;
21430;SDS011;10876;49.038;10.608;2023-06-14T05:13:21;7.95;;;5.63;;
21430;SDS011;10876;49.038;10.608;2023-06-14T05:15:48;9.27;;;5.80;;
21430;SDS011;10876;49.038;10.608;2023-06-14T05:18:16;8.77;;;5.63;;
21430;SDS011;10876;49.038;10.608;2023-06-14T05:20:43;8.70;;;5.63;;
21430;SDS011;10876;49.038;10.608;2023-06-14T05:23:10;9.38;;;5.25;;
21430;SDS011;10876;49.038;10.608;2023-06-14T05:25:40;6.30;;;5.35;;
21430;SDS011;10876;49.038;10.608;2023-06-14T05:28:08;7.63;;;4.95;;
21430;SDS011;10876;49.038;10.608;2023-06-14T05:30:34;7.60;;;5.30;;
21430;SDS011;10876;49.038;10.608;2023-06-14T05:33:01;7.95;;;5.18;;
21430;SDS011;10876;49.038;10.608;2023-06-14T05:35:30;9.35;;;5.50;;
21430;SDS011;10876;49.038;10.608;2023-06-14T05:37:57;7.22;;;5.05;;
21430;SDS011;10876;49.038;10.608;2023-06-14T05:40:23;7.38;;;5.43;;
21430;SDS011;10876;49.038;10.608;2023-06-14T05:42:50;8.75;;;4.88;;
21430;SDS011;10876;49.038;10.608;2023-06-14T05:45:17;8.20;;;5.25;;
21430;SDS011;10876;49.038;10.608;2023-06-14T05:47:44;6.80;;;5.15;;
21430;SDS011;10876;49.038;10.608;2023-06-14T05:50:10;6.28;;;5.05;;
21430;SDS011;10876;49.038;10.608;2023-06-14T05:52:38;7.95;;;4.93;;
21430;SDS011;10876;49.038;10.608;2023-06-14T05:55:05;5.97;;;5.03;;
21430;SDS011;10876;49.038;10.608;2023-06-14T05:57:32;8.30;;;5.10;;
21430;SDS011;10876;49.038;10.608;2023-06-14T05:59:59;7.10;;;4.90;;
21430;SDS011;10876;49.038;10.608;2023-06-14T06:02:26;7.32;;;4.68;;
21430;SDS011;10876;49.038;10.608;2023-06-14T06:04:52;6.78;;;4.55;;
21430;SDS011;10876;49.038;10.608;2023-06-14T06:07:19;9.13;;;4.45;;
21430;SDS011;10876;49.038;10.608;2023-06-14T06:09:48;8.35;;;4.85;;
21430;SDS011;10876;49.038;10.608;2023-06-14T06:12:15;5.20;;;4.40;;
21430;SDS011;10876;49.038;10.608;2023-06-14T06:14:41;5.32;;;4.65;;
21430;SDS011;10876;49.038;10.608;2023-06-14T06:17:08;6.78;;;4.45;;
21430;SDS011;10876;49.038;10.608;2023-06-14T06:19:35;6.60;;;4.20;;
21430;SDS011;10876;49.038;10.608;2023-06-14T06:22:01;5.95;;;4.07;;
21430;SDS011;10876;49.038;10.608;2023-06-14T06:24:30;7.25;;;4.50;;
21430;SDS011;10876;49.038;10.608;2023-06-14T06:26:58;5.32;;;4.15;;
21430;SDS011;10876;49.038;10.608;2023-06-14T06:29:25;6.40;;;4.20;;
21430;SDS011;10876;49.038;10.608;2023-06-14T06:31:52;7.13;;;4.05;;
21430;SDS011;10876;49.038;10.608;2023-06-14T06:34:18;6.05;;;4.00;;
21430;SDS011;10876;49.038;10.608;2023-06-14T06:36:45;6.00;;;4.43;;
21430;SDS011;10876;49.038;10.608;2023-06-14T06:39:12;7.60;;;4.30;;
21430;SDS011;10876;49.038;10.608;2023-06-14T06:41:40;6.63;;;4.05;;
21430;SDS011;10876;49.038;10.608;2023-06-14T06:44:08;5.50;;;3.63;;
21430;SDS011;10876;49.038;10.608;2023-06-14T06:46:35;6.13;;;3.75;;
21430;SDS011;10876;49.038;10.608;2023-06-14T06:49:05;5.18;;;3.83;;
21430;SDS011;10876;49.038;10.608;2023-06-14T06:51:31;5.07;;;3.65;;
21430;SDS011;10876;49.038;10.608;2023-06-14T06:53:58;5.55;;;3.90;;
21430;SDS011;10876;49.038;10.608;2023-06-14T06:56:25;6.32;;;4.32;;
21430;SDS011;10876;49.038;10.608;2023-06-14T06:58:52;7.50;;;3.90;;
21430;SDS011;10876;49.038;10.608;2023-06-14T07:01:20;9.80;;;3.97;;
21430;SDS011;10876;49.038;10.608;2023-06-14T07:03:46;7.03;;;3.65;;
21430;SDS011;10876;49.038;10.608;2023-06-14T07:06:13;5.55;;;3.97;;
21430;SDS011;10876;49.038;10.608;2023-06-14T07:08:43;4.97;;;3.70;;
21430;SDS011;10876;49.038;10.608;2023-06-14T07:11:10;6.80;;;3.97;;
21430;SDS011;10876;49.038;10.608;2023-06-14T07:13:37;5.60;;;3.30;;
21430;SDS011;10876;49.038;10.608;2023-06-14T07:16:04;5.72;;;3.50;;
21430;SDS011;10876;49.038;10.608;2023-06-14T07:18:32;7.97;;;3.75;;
21430;SDS011;10876;49.038;10.608;2023-06-14T07:20:58;5.13;;;3.72;;
21430;SDS011;10876;49.038;10.608;2023-06-14T07:23:26;4.18;;;3.30;;
21430;SDS011;10876;49.038;10.608;2023-06-14T07:25:52;4.90;;;3.47;;
21430;SDS011;10876;49.038;10.608;2023-06-14T07:28:19;4.82;;;3.72;;
21430;SDS011;10876;49.038;10.608;2023-06-14T07:30:46;5.13;;;3.45;;
21430;SDS011;10876;49.038;10.608;2023-06-14T07:33:13;6.07;;;3.30;;
21430;SDS011;10876;49.038;10.608;2023-06-14T07:35:41;7.47;;;3.17;;
21430;SDS011;10876;49.038;10.608;2023-06-14T07:38:08;8.95;;;3.38;;
21430;SDS011;10876;49.038;10.608;2023-06-14T07:40:35;4.05;;;3.50;;
21430;SDS011;10876;49.038;10.608;2023-06-14T07:43:02;5.63;;;3.40;;
21430;SDS011;10876;49.038;10.608;2023-06-14T07:45:28;4.75;;;3.28;;
21430;SDS011;10876;49.038;10.608;2023-06-14T07:47:55;5.47;;;3.13;;
21430;SDS011;10876;49.038;10.608;2023-06-14T07:50:22;5.38;;;3.47;;
21430;SDS011;10876;49.038;10.608;2023-06-14T07:52:51;5.20;;;3.17;;
21430;SDS011;10876;49.038;10.608;2023-06-14T07:55:17;6.35;;;3.15;;
21430;SDS011;10876;49.038;10.608;2023-06-14T07:57:44;3.63;;;3.05;;
21430;SDS011;10876;49.038;10.608;2023-06-14T08:00:11;7.03;;;3.45;;
21430;SDS011;10876;49.038;10.608;2023-06-14T08:02:40;5.65;;;3.15;;
21430;SDS011;10876;49.038;10.608;2023-06-14T08:05:08;4.50;;;3.42;;
21430;SDS011;10876;49.038;10.608;2023-06-14T08:07:35;10.52;;;3.60;;
21430;SDS011;10876;49.038;10.608;2023-06-14T08:10:04;4.57;;;3.42;;
21430;SDS011;10876;49.038;10.608;2023-06-14T08:12:31;5.22;;;3.80;;
21430;SDS011;10876;49.038;10.608;2023-06-14T08:14:59;6.53;;;3.40;;
21430;SDS011;10876;49.038;10.608;2023-06-14T08:17:25;6.15;;;3.22;;
21430;SDS011;10876;49.038;10.608;2023-06-14T08:19:52;4.60;;;3.40;;
21430;SDS011;10876;49.038;10.608;2023-06-14T08:22:22;4.90;;;3.40;;
21430;SDS011;10876;49.038;10.608;2023-06-14T08:24:50;6.28;;;3.53;;
21430;SDS011;10876;49.038;10.608;2023-06-14T08:27:20;5.25;;;3.22;;
21430;SDS011;10876;49.038;10.608;2023-06-14T08:29:47;5.32;;;3.25;;
21430;SDS011;10876;49.038;10.608;2023-06-14T08:32:14;5.45;;;3.60;;
21430;SDS011;10876;49.038;10.608;2023-06-14T08:34:41;6.22;;;4.18;;
21430;SDS011;10876;49.038;10.608;2023-06-14T08:37:07;6.03;;;3.30;;
21430;SDS011;10876;49.038;10.608;2023-06-14T08:39:34;5.47;;;3.28;;
21430;SDS011;10876;49.038;10.608;2023-06-14T08:42:01;5.78;;;3.40;;
21430;SDS011;10876;49.038;10.608;2023-06-14T08:44:30;5.03;;;3.33;;
21430;SDS011;10876;49.038;10.608;2023-06-14T08:46:57;4.93;;;3.20;;
21430;SDS011;10876;49.038;10.608;2023-06-14T08:49:25;7.88;;;3.70;;
21430;SDS011;10876;49.038;10.608;2023-06-14T08:51:54;5.60;;;3.00;;
21430;SDS011;10876;49.038;10.608;2023-06-14T08:54:25;7.10;;;3.25;;
21430;SDS011;10876;49.038;10.608;2023-06-14T08:56:55;4.68;;;3.22;;
21430;SDS011;10876;49.038;10.608;2023-06-14T08:59:23;6.28;;;3.63;;
21430;SDS011;10876;49.038;10.608;2023-06-14T09:01:52;3.83;;;3.30;;
21430;SDS011;10876;49.038;10.608;2023-06-14T09:04:19;6.40;;;3.30;;
21430;SDS011;10876;49.038;10.608;2023-06-14T09:06:46;5.18;;;3.10;;
21430;SDS011;10876;49.038;10.608;2023-06-14T09:09:18;3.72;;;2.63;;
21430;SDS011;10876;49.038;10.608;2023-06-14T09:11:46;5.40;;;3.25;;
21430;SDS011;10876;49.038;10.608;2023-06-14T09:14:12;5.10;;;3.53;;
21430;SDS011;10876;49.038;10.608;2023-06-14T09:16:39;4.72;;;3.50;;
21430;SDS011;10876;49.038;10.608;2023-06-14T09:19:07;4.30;;;3.45;;
21430;SDS011;10876;49.038;10.608;2023-06-14T09:21:35;7.20;;;3.00;;
21430;SDS011;10876;49.038;10.608;2023-06-14T09:24:02;5.03;;;2.97;;
21430;SDS011;10876;49.038;10.608;2023-06-14T09:26:29;4.22;;;3.35;;
21430;SDS011;10876;49.038;10.608;2023-06-14T09:28:56;7.10;;;3.40;;
21430;SDS011;10876;49.038;10.608;2023-06-14T09:31:24;3.35;;;2.72;;
21430;SDS011;10876;49.038;10.608;2023-06-14T09:33:51;4.10;;;3.33;;
21430;SDS011;10876;49.038;10.608;2023-06-14T09:36:23;6.55;;;3.13;;
21430;SDS011;10876;49.038;10.608;2023-06-14T09:38:51;7.82;;;3.33;;
21430;SDS011;10876;49.038;10.608;2023-06-14T09:41:19;3.53;;;3.00;;
21430;SDS011;10876;49.038;10.608;2023-06-14T09:43:46;5.82;;;2.80;;
21430;SDS011;10876;49.038;10.608;2023-06-14T09:46:14;4.15;;;2.85;;
21430;SDS011;10876;49.038;10.608;2023-06-14T09:48:41;6.28;;;3.15;;
21430;SDS011;10876;49.038;10.608;2023-06-14T09:51:08;4.63;;;2.72;;
21430;SDS011;10876;49.038;10.608;2023-06-14T09:53:38;3.47;;;2.58;;
21430;SDS011;10876;49.038;10.608;2023-06-14T09:56:07;6.47;;;2.70;;
21430;SDS011;10876;49.038;10.608;2023-06-14T09:58:35;6.78;;;3.22;;
21430;SDS011;10876;49.038;10.608;2023-06-14T10:01:05;3.75;;;3.08;;
21430;SDS011;10876;49.038;10.608;2023-06-14T10:03:35;5.40;;;2.58;;
21430;SDS011;10876;49.038;10.608;2023-06-14T10:06:04;6.03;;;2.90;;
21430;SDS011;10876;49.038;10.608;2023-06-14T10:08:34;3.55;;;2.70;;
21430;SDS011;10876;49.038;10.608;2023-06-14T10:11:05;10.20;;;2.80;;
21430;SDS011;10876;49.038;10.608;2023-06-14T10:13:32;4.10;;;3.20;;
21430;SDS011;10876;49.038;10.608;2023-06-14T10:16:02;5.63;;;2.72;;
21430;SDS011;10876;49.038;10.608;2023-06-14T10:18:42;3.95;;;2.90;;
21430;SDS011;10876;49.038;10.608;2023-06-14T10:21:16;5.30;;;2.78;;
21430;SDS011;10876;49.038;10.608;2023-06-14T10:23:49;5.03;;;3.20;;
21430;SDS011;10876;49.038;10.608;2023-06-14T10:26:20;2.92;;;2.60;;
21430;SDS011;10876;49.038;10.608;2023-06-14T10:28:57;4.75;;;2.90;;
21430;SDS011;10876;49.038;10.608;2023-06-14T10:31:39;4.85;;;2.70;;
21430;SDS011;10876;49.038;10.608;2023-06-14T10:34:07;3.65;;;2.65;;
21430;SDS011;10876;49.038;10.608;2023-06-14T10:36:34;4.07;;;3.03;;
21430;SDS011;10876;49.038;10.608;2023-06-14T10:39:04;3.50;;;2.60;;
21430;SDS011;10876;49.038;10.608;2023-06-14T10:41:34;3.63;;;2.63;;
21430;SDS011;10876;49.038;10.608;2023-06-14T10:46:58;3.40;;;2.60;;
21430;SDS011;10876;49.038;10.608;2023-06-14T10:49:36;6.38;;;2.75;;
21430;SDS011;10876;49.038;10.608;2023-06-14T10:52:16;3.92;;;2.83;;
21430;SDS011;10876;49.038;10.608;2023-06-14T10:55:00;4.78;;;2.55;;
21430;SDS011;10876;49.038;10.608;2023-06-14T10:57:38;3.15;;;2.60;;
21430;SDS011;10876;49.038;10.608;2023-06-14T11:00:06;4.03;;;2.85;;
21430;SDS011;10876;49.038;10.608;2023-06-14T11:05:49;6.07;;;2.53;;
21430;SDS011;10876;49.038;10.608;2023-06-14T11:08:27;3.38;;;2.65;;
21430;SDS011;10876;49.038;10.608;2023-06-14T11:11:08;7.05;;;2.90;;
21430;SDS011;10876;49.038;10.608;2023-06-14T11:13:36;3.65;;;2.60;;
21430;SDS011;10876;49.038;10.608;2023-06-14T11:16:10;4.20;;;2.95;;
21430;SDS011;10876;49.038;10.608;2023-06-14T11:18:38;4.15;;;2.80;;
21430;SDS011;10876;49.038;10.608;2023-06-14T11:21:04;2.38;;;2.17;;
21430;SDS011;10876;49.038;10.608;2023-06-14T11:23:32;5.30;;;2.65;;
21430;SDS011;10876;49.038;10.608;2023-06-14T11:25:58;3.47;;;2.53;;
21430;SDS011;10876;49.038;10.608;2023-06-14T11:28:35;4.30;;;2.65;;
21430;SDS011;10876;49.038;10.608;2023-06-14T11:31:03;3.33;;;2.50;;
21430;SDS011;10876;49.038;10.608;2023-06-14T11:33:30;4.60;;;2.55;;
21430;SDS011;10876;49.038;10.608;2023-06-14T11:35:57;3.78;;;2.67;;
21430;SDS011;10876;49.038;10.608;2023-06-14T11:38:24;3.85;;;2.42;;
21430;SDS011;10876;49.038;10.608;2023-06-14T11:40:51;6.25;;;2.88;;
21430;SDS011;10876;49.038;10.608;2023-06-14T11:43:18;5.88;;;2.80;;
21430;SDS011;10876;49.038;10.608;2023-06-14T11:45:49;4.05;;;2.60;;
21430;SDS011;10876;49.038;10.608;2023-06-14T11:48:16;4.55;;;2.60;;
21430;SDS011;10876;49.038;10.608;2023-06-14T11:50:43;4.50;;;2.40;;
21430;SDS011;10876;49.038;10.608;2023-06-14T11:53:09;5.97;;;2.78;;
21430;SDS011;10876;49.038;10.608;2023-06-14T11:55:36;3.17;;;2.58;;
21430;SDS011;10876;49.038;10.608;2023-06-14T11:58:04;4.60;;;2.42;;
21430;SDS011;10876;49.038;10.608;2023-06-14T12:00:31;6.05;;;2.55;;
21430;SDS011;10876;49.038;10.608;2023-06-14T12:02:59;3.88;;;3.00;;
21430;SDS011;10876;49.038;10.608;2023-06-14T12:05:26;4.30;;;2.30;;
21430;SDS011;10876;49.038;10.608;2023-06-14T12:08:15;3.80;;;2.75;;
21430;SDS011;10876;49.038;10.608;2023-06-14T12:11:03;7.40;;;2.80;;
21430;SDS011;10876;49.038;10.608;2023-06-14T12:13:30;4.68;;;2.95;;
21430;SDS011;10876;49.038;10.608;2023-06-14T12:15:57;3.97;;;2.80;;
21430;SDS011;10876;49.038;10.608;2023-06-14T12:18:32;5.22;;;2.50;;
21430;SDS011;10876;49.038;10.608;2023-06-14T12:21:01;3.30;;;2.50;;
21430;SDS011;10876;49.038;10.608;2023-06-14T12:23:42;3.72;;;2.72;;
21430;SDS011;10876;49.038;10.608;2023-06-14T12:26:12;3.45;;;2.65;;
21430;SDS011;10876;49.038;10.608;2023-06-14T12:28:39;6.13;;;2.80;;
21430;SDS011;10876;49.038;10.608;2023-06-14T12:31:07;3.10;;;2.78;;
21430;SDS011;10876;49.038;10.608;2023-06-14T12:33:35;4.72;;;2.58;;
21430;SDS011;10876;49.038;10.608;2023-06-14T12:36:03;3.72;;;2.40;;
21430;SDS011;10876;49.038;10.608;2023-06-14T12:38:30;4.07;;;2.33;;
21430;SDS011;10876;49.038;10.608;2023-06-14T12:40:57;3.88;;;2.67;;
21430;SDS011;10876;49.038;10.608;2023-06-14T12:43:23;4.18;;;2.60;;
21430;SDS011;10876;49.038;10.608;2023-06-14T12:45:50;3.17;;;2.60;;
21430;SDS011;10876;49.038;10.608;2023-06-14T12:48:17;5.60;;;2.85;;
21430;SDS011;10876;49.038;10.608;2023-06-14T12:50:45;5.45;;;2.60;;
21430;SDS011;10876;49.038;10.608;2023-06-14T12:53:12;5.32;;;2.80;;
21430;SDS011;10876;49.038;10.608;2023-06-14T12:55:39;2.88;;;2.38;;
21430;SDS011;10876;49.038;10.608;2023-06-14T12:58:06;3.45;;;2.50;;
21430;SDS011;10876;49.038;10.608;2023-06-14T13:00:33;3.08;;;2.55;;
21430;SDS011;10876;49.038;10.608;2023-06-14T13:03:01;4.60;;;2.70;;
21430;SDS011;10876;49.038;10.608;2023-06-14T13:05:28;3.60;;;2.65;;
21430;SDS011;10876;49.038;10.608;2023-06-14T13:07:57;7.15;;;2.47;;
21430;SDS011;10876;49.038;10.608;2023-06-14T13:10:24;5.40;;;2.55;;
21430;SDS011;10876;49.038;10.608;2023-06-14T13:12:52;3.95;;;2.92;;
21430;SDS011;10876;49.038;10.608;2023-06-14T13:15:19;8.70;;;3.05;;
21430;SDS011;10876;49.038;10.608;2023-06-14T13:17:45;4.43;;;2.58;;
21430;SDS011;10876;49.038;10.608;2023-06-14T13:20:13;3.58;;;2.90;;
21430;SDS011;10876;49.038;10.608;2023-06-14T13:22:40;5.60;;;2.67;;
21430;SDS011;10876;49.038;10.608;2023-06-14T13:25:09;4.47;;;3.03;;
21430;SDS011;10876;49.038;10.608;2023-06-14T13:27:35;4.82;;;2.75;;
21430;SDS011;10876;49.038;10.608;2023-06-14T13:30:02;4.43;;;2.65;;
21430;SDS011;10876;49.038;10.608;2023-06-14T13:32:31;4.13;;;2.72;;
21430;SDS011;10876;49.038;10.608;2023-06-14T13:34:57;5.63;;;2.50;;
21430;SDS011;10876;49.038;10.608;2023-06-14T13:37:25;6.13;;;2.80;;
21430;SDS011;10876;49.038;10.608;2023-06-14T13:39:51;5.38;;;3.15;;
21430;SDS011;10876;49.038;10.608;2023-06-14T13:42:19;6.00;;;3.17;;
21430;SDS011;10876;49.038;10.608;2023-06-14T13:44:46;7.22;;;2.90;;
21430;SDS011;10876;49.038;10.608;2023-06-14T13:47:13;3.13;;;2.70;;
21430;SDS011;10876;49.038;10.608;2023-06-14T13:49:39;3.28;;;2.75;;
21430;SDS011;10876;49.038;10.608;2023-06-14T13:52:06;4.55;;;3.00;;
21430;SDS011;10876;49.038;10.608;2023-06-14T13:54:33;7.13;;;3.05;;
21430;SDS011;10876;49.038;10.608;2023-06-14T13:57:01;3.40;;;2.90;;
21430;SDS011;10876;49.038;10.608;2023-06-14T13:59:29;4.20;;;3.13;;
21430;SDS011;10876;49.038;10.608;2023-06-14T14:01:56;3.80;;;3.40;;
21430;SDS011;10876;49.038;10.608;2023-06-14T14:04:22;4.40;;;3.30;;
21430;SDS011;10876;49.038;10.608;2023-06-14T14:06:49;5.40;;;3.20;;
21430;SDS011;10876;49.038;10.608;2023-06-14T14:09:16;4.85;;;3.10;;
21430;SDS011;10876;49.038;10.608;2023-06-14T14:11:42;4.43;;;3.40;;
21430;SDS011;10876;49.038;10.608;2023-06-14T14:14:09;5.80;;;2.90;;
21430;SDS011;10876;49.038;10.608;2023-06-14T14:16:37;8.30;;;3.03;;
21430;SDS011;10876;49.038;10.608;2023-06-14T14:19:04;3.55;;;2.80;;
21430;SDS011;10876;49.038;10.608;2023-06-14T14:21:31;3.35;;;2.63;;
21430;SDS011;10876;49.038;10.608;2023-06-14T14:23:58;3.72;;;2.65;;
21430;SDS011;10876;49.038;10.608;2023-06-14T14:26:25;4.20;;;2.92;;
21430;SDS011;10876;49.038;10.608;2023-06-14T14:28:52;6.38;;;3.13;;
21430;SDS011;10876;49.038;10.608;2023-06-14T14:31:19;4.35;;;3.10;;
21430;SDS011;10876;49.038;10.608;2023-06-14T14:33:47;5.68;;;3.00;;
21430;SDS011;10876;49.038;10.608;2023-06-14T14:36:13;5.10;;;3.00;;
21430;SDS011;10876;49.038;10.608;2023-06-14T14:38:40;5.45;;;2.80;;
21430;SDS011;10876;49.038;10.608;2023-06-14T14:41:07;4.50;;;2.88;;
21430;SDS011;10876;49.038;10.608;2023-06-14T14:43:34;4.78;;;2.90;;
21430;SDS011;10876;49.038;10.608;2023-06-14T14:46:00;4.70;;;3.22;;
21430;SDS011;10876;49.038;10.608;2023-06-14T14:48:27;4.97;;;2.90;;
21430;SDS011;10876;49.038;10.608;2023-06-14T14:50:55;3.60;;;2.95;;
21430;SDS011;10876;49.038;10.608;2023-06-14T14:53:22;4.47;;;3.55;;
21430;SDS011;10876;49.038;10.608;2023-06-14T14:55:49;3.90;;;3.08;;
21430;SDS011;10876;49.038;10.608;2023-06-14T14:58:16;3.28;;;2.58;;
21430;SDS011;10876;49.038;10.608;2023-06-14T15:00:43;3.22;;;2.85;;
21430;SDS011;10876;49.038;10.608;2023-06-14T15:03:10;4.65;;;3.13;;
21430;SDS011;10876;49.038;10.608;2023-06-14T15:05:37;7.35;;;2.90;;
21430;SDS011;10876;49.038;10.608;2023-06-14T15:08:06;4.53;;;3.08;;
21430;SDS011;10876;49.038;10.608;2023-06-14T15:10:36;3.28;;;2.70;;
21430;SDS011;10876;49.038;10.608;2023-06-14T15:13:05;4.25;;;3.10;;
21430;SDS011;10876;49.038;10.608;2023-06-14T15:15:32;3.47;;;2.65;;
21430;SDS011;10876;49.038;10.608;2023-06-14T15:17:59;3.67;;;2.60;;
21430;SDS011;10876;49.038;10.608;2023-06-14T15:20:25;5.38;;;3.00;;
21430;SDS011;10876;49.038;10.608;2023-06-14T15:22:52;6.25;;;2.67;;
21430;SDS011;10876;49.038;10.608;2023-06-14T15:25:22;7.80;;;3.20;;
21430;SDS011;10876;49.038;10.608;2023-06-14T15:27:48;3.25;;;2.65;;
21430;SDS011;10876;49.038;10.608;2023-06-14T15:30:15;5.28;;;2.60;;
21430;SDS011;10876;49.038;10.608;2023-06-14T15:32:42;4.97;;;2.75;;
21430;SDS011;10876;49.038;10.608;2023-06-14T15:35:08;3.60;;;3.00;;
21430;SDS011;10876;49.038;10.608;2023-06-14T15:37:37;6.63;;;3.08;;
21430;SDS011;10876;49.038;10.608;2023-06-14T15:40:04;8.27;;;3.30;;
21430;SDS011;10876;49.038;10.608;2023-06-14T15:42:33;5.13;;;3.05;;
21430;SDS011;10876;49.038;10.608;2023-06-14T15:45:00;3.50;;;2.92;;
21430;SDS011;10876;49.038;10.608;2023-06-14T15:47:26;5.80;;;3.05;;
21430;SDS011;10876;49.038;10.608;2023-06-14T15:49:53;3.47;;;2.70;;
21430;SDS011;10876;49.038;10.608;2023-06-14T15:52:20;5.30;;;3.00;;
21430;SDS011;10876;49.038;10.608;2023-06-14T15:54:46;5.72;;;3.00;;
21430;SDS011;10876;49.038;10.608;2023-06-14T15:59:50;3.72;;;2.83;;
21430;SDS011;10876;49.038;10.608;2023-06-14T16:02:17;4.40;;;2.80;;
21430;SDS011;10876;49.038;10.608;2023-06-14T16:04:44;6.53;;;2.97;;
21430;SDS011;10876;49.038;10.608;2023-06-14T16:07:11;6.25;;;3.15;;
21430;SDS011;10876;49.038;10.608;2023-06-14T16:09:39;3.90;;;3.22;;
21430;SDS011;10876;49.038;10.608;2023-06-14T16:12:08;4.22;;;2.92;;
21430;SDS011;10876;49.038;10.608;2023-06-14T16:14:36;4.72;;;2.85;;
21430;SDS011;10876;49.038;10.608;2023-06-14T16:17:04;5.70;;;3.20;;
21430;SDS011;10876;49.038;10.608;2023-06-14T16:19:32;5.18;;;3.22;;
21430;SDS011;10876;49.038;10.608;2023-06-14T16:22:01;4.68;;;2.80;;
21430;SDS011;10876;49.038;10.608;2023-06-14T16:24:30;5.13;;;3.28;;
21430;SDS011;10876;49.038;10.608;2023-06-14T16:26:59;4.07;;;3.50;;
21430;SDS011;10876;49.038;10.608;2023-06-14T16:29:27;6.25;;;3.50;;